sensor_id;sensor_type;location;lat;lon;timestamp;temperature;humidity
73360;DHT22;63092;43.582;19.528;2024-01-30T00:01:52;3.30;99.90
73360;DHT22;63092;43.582;19.528;2024-01-30T00:04:19;3.30;99.90
73360;DHT22;63092;43.582;19.528;2024-01-30T00:06:45;3.30;99.90
73360;DHT22;63092;43.582;19.528;2024-01-30T00:09:11;3.30;99.90
73360;DHT22;63092;43.582;19.528;2024-01-30T00:11:37;3.30;99.90
73360;DHT22;63092;43.582;19.528;2024-01-30T00:14:03;3.20;99.90
73360;DHT22;63092;43.582;19.528;2024-01-30T00:16:29;3.10;99.90
73360;DHT22;63092;43.582;19.528;2024-01-30T00:18:55;3.00;99.90
73360;DHT22;63092;43.582;19.528;2024-01-30T00:21:21;3.00;99.90
73360;DHT22;63092;43.582;19.528;2024-01-30T00:23:47;3.00;99.90
73360;DHT22;63092;43.582;19.528;2024-01-30T00:26:15;3.00;99.90
73360;DHT22;63092;43.582;19.528;2024-01-30T00:28:41;3.00;99.90
73360;DHT22;63092;43.582;19.528;2024-01-30T00:31:07;3.00;99.90
73360;DHT22;63092;43.582;19.528;2024-01-30T00:33:33;2.80;99.90
73360;DHT22;63092;43.582;19.528;2024-01-30T00:35:59;2.80;99.90
73360;DHT22;63092;43.582;19.528;2024-01-30T00:38:24;2.90;99.90
73360;DHT22;63092;43.582;19.528;2024-01-30T00:40:50;2.80;99.90
73360;DHT22;63092;43.582;19.528;2024-01-30T00:43:16;2.80;99.90
73360;DHT22;63092;43.582;19.528;2024-01-30T00:45:43;2.80;99.90
73360;DHT22;63092;43.582;19.528;2024-01-30T00:48:09;2.90;99.90
73360;DHT22;63092;43.582;19.528;2024-01-30T00:50:35;2.90;99.90
73360;DHT22;63092;43.582;19.528;2024-01-30T00:53:01;2.80;99.90
73360;DHT22;63092;43.582;19.528;2024-01-30T00:55:27;2.80;99.90
73360;DHT22;63092;43.582;19.528;2024-01-30T00:57:52;2.80;99.90
73360;DHT22;63092;43.582;19.528;2024-01-30T01:00:18;2.70;99.90
73360;DHT22;63092;43.582;19.528;2024-01-30T01:02:46;2.60;99.90
73360;DHT22;63092;43.582;19.528;2024-01-30T01:05:12;2.50;99.90
73360;DHT22;63092;43.582;19.528;2024-01-30T01:07:37;2.50;99.90
73360;DHT22;63092;43.582;19.528;2024-01-30T01:10:03;2.40;99.90
73360;DHT22;63092;43.582;19.528;2024-01-30T01:12:29;2.40;99.90
73360;DHT22;63092;43.582;19.528;2024-01-30T01:14:55;2.40;99.90
73360;DHT22;63092;43.582;19.528;2024-01-30T01:17:21;2.40;99.90
73360;DHT22;63092;43.582;19.528;2024-01-30T01:19:46;2.40;99.90
73360;DHT22;63092;43.582;19.528;2024-01-30T01:22:12;2.50;99.90
73360;DHT22;63092;43.582;19.528;2024-01-30T01:24:38;2.50;99.90
73360;DHT22;63092;43.582;19.528;2024-01-30T01:27:05;2.40;99.90
73360;DHT22;63092;43.582;19.528;2024-01-30T01:29:31;2.40;99.90
73360;DHT22;63092;43.582;19.528;2024-01-30T01:31:57;2.40;99.90
73360;DHT22;63092;43.582;19.528;2024-01-30T01:34:23;2.40;99.90
73360;DHT22;63092;43.582;19.528;2024-01-30T01:36:50;2.40;99.90
73360;DHT22;63092;43.582;19.528;2024-01-30T01:39:16;2.40;99.90
73360;DHT22;63092;43.582;19.528;2024-01-30T01:41:42;2.40;99.90
73360;DHT22;63092;43.582;19.528;2024-01-30T01:44:09;2.40;99.90
73360;DHT22;63092;43.582;19.528;2024-01-30T01:46:35;2.30;99.90
73360;DHT22;63092;43.582;19.528;2024-01-30T01:49:05;2.20;99.90
73360;DHT22;63092;43.582;19.528;2024-01-30T01:51:33;2.10;99.90
73360;DHT22;63092;43.582;19.528;2024-01-30T01:54:03;2.20;99.90
73360;DHT22;63092;43.582;19.528;2024-01-30T01:56:29;2.20;99.90
73360;DHT22;63092;43.582;19.528;2024-01-30T01:59:05;2.20;99.90
73360;DHT22;63092;43.582;19.528;2024-01-30T02:01:32;2.20;99.90
73360;DHT22;63092;43.582;19.528;2024-01-30T02:03:59;2.30;99.90
73360;DHT22;63092;43.582;19.528;2024-01-30T02:06:25;2.20;99.90
73360;DHT22;63092;43.582;19.528;2024-01-30T02:08:51;2.20;99.90
73360;DHT22;63092;43.582;19.528;2024-01-30T02:11:16;2.10;99.90
73360;DHT22;63092;43.582;19.528;2024-01-30T02:13:42;2.10;99.90
73360;DHT22;63092;43.582;19.528;2024-01-30T02:16:08;2.20;99.90
73360;DHT22;63092;43.582;19.528;2024-01-30T02:18:34;2.20;99.90
73360;DHT22;63092;43.582;19.528;2024-01-30T02:21:04;2.10;99.90
73360;DHT22;63092;43.582;19.528;2024-01-30T02:23:30;2.20;99.90
73360;DHT22;63092;43.582;19.528;2024-01-30T02:25:58;2.20;99.90
73360;DHT22;63092;43.582;19.528;2024-01-30T02:28:24;2.10;99.90
73360;DHT22;63092;43.582;19.528;2024-01-30T02:30:49;2.20;99.90
73360;DHT22;63092;43.582;19.528;2024-01-30T02:33:15;2.20;99.90
73360;DHT22;63092;43.582;19.528;2024-01-30T02:35:41;2.10;99.90
73360;DHT22;63092;43.582;19.528;2024-01-30T02:38:07;2.00;99.90
73360;DHT22;63092;43.582;19.528;2024-01-30T02:40:33;1.90;99.90
73360;DHT22;63092;43.582;19.528;2024-01-30T02:42:59;1.80;99.90
73360;DHT22;63092;43.582;19.528;2024-01-30T02:45:25;1.70;99.90
73360;DHT22;63092;43.582;19.528;2024-01-30T02:47:51;1.70;99.90
73360;DHT22;63092;43.582;19.528;2024-01-30T02:50:17;1.70;99.90
73360;DHT22;63092;43.582;19.528;2024-01-30T02:52:43;1.70;99.90
73360;DHT22;63092;43.582;19.528;2024-01-30T02:55:12;1.70;99.90
73360;DHT22;63092;43.582;19.528;2024-01-30T02:57:38;1.60;99.90
73360;DHT22;63092;43.582;19.528;2024-01-30T03:00:05;1.60;99.90
73360;DHT22;63092;43.582;19.528;2024-01-30T03:02:32;1.50;99.90
73360;DHT22;63092;43.582;19.528;2024-01-30T03:04:59;1.40;99.90
73360;DHT22;63092;43.582;19.528;2024-01-30T03:07:25;1.40;99.90
73360;DHT22;63092;43.582;19.528;2024-01-30T03:09:51;1.30;99.90
73360;DHT22;63092;43.582;19.528;2024-01-30T03:12:17;1.20;99.90
73360;DHT22;63092;43.582;19.528;2024-01-30T03:14:42;1.20;99.90
73360;DHT22;63092;43.582;19.528;2024-01-30T03:17:08;1.20;99.90
73360;DHT22;63092;43.582;19.528;2024-01-30T03:19:34;1.20;99.90
73360;DHT22;63092;43.582;19.528;2024-01-30T03:22:00;1.20;99.90
73360;DHT22;63092;43.582;19.528;2024-01-30T03:24:25;1.20;99.90
73360;DHT22;63092;43.582;19.528;2024-01-30T03:26:51;1.30;99.90
73360;DHT22;63092;43.582;19.528;2024-01-30T03:29:17;1.30;99.90
73360;DHT22;63092;43.582;19.528;2024-01-30T03:31:43;1.30;99.90
73360;DHT22;63092;43.582;19.528;2024-01-30T03:34:08;1.40;99.90
73360;DHT22;63092;43.582;19.528;2024-01-30T03:36:34;1.40;99.90
73360;DHT22;63092;43.582;19.528;2024-01-30T03:39:00;1.40;99.90
73360;DHT22;63092;43.582;19.528;2024-01-30T03:41:26;1.40;99.90
73360;DHT22;63092;43.582;19.528;2024-01-30T03:43:52;1.40;99.90
73360;DHT22;63092;43.582;19.528;2024-01-30T03:46:18;1.40;99.90
73360;DHT22;63092;43.582;19.528;2024-01-30T03:48:45;1.40;99.90
73360;DHT22;63092;43.582;19.528;2024-01-30T03:51:11;1.30;99.90
73360;DHT22;63092;43.582;19.528;2024-01-30T03:53:41;1.20;99.90
73360;DHT22;63092;43.582;19.528;2024-01-30T03:56:07;1.20;99.90
73360;DHT22;63092;43.582;19.528;2024-01-30T03:58:33;1.10;99.90
73360;DHT22;63092;43.582;19.528;2024-01-30T04:00:59;1.10;99.90
73360;DHT22;63092;43.582;19.528;2024-01-30T04:03:24;1.10;99.90
73360;DHT22;63092;43.582;19.528;2024-01-30T04:05:52;1.10;99.90
73360;DHT22;63092;43.582;19.528;2024-01-30T04:08:17;1.10;99.90
73360;DHT22;63092;43.582;19.528;2024-01-30T04:10:43;1.00;99.90
73360;DHT22;63092;43.582;19.528;2024-01-30T04:13:09;1.10;99.90
73360;DHT22;63092;43.582;19.528;2024-01-30T04:15:35;1.00;99.90
73360;DHT22;63092;43.582;19.528;2024-01-30T04:18:00;0.90;99.90
73360;DHT22;63092;43.582;19.528;2024-01-30T04:20:26;0.80;99.90
73360;DHT22;63092;43.582;19.528;2024-01-30T04:22:52;0.90;99.90
73360;DHT22;63092;43.582;19.528;2024-01-30T04:25:17;0.80;99.90
73360;DHT22;63092;43.582;19.528;2024-01-30T04:27:43;0.70;99.90
73360;DHT22;63092;43.582;19.528;2024-01-30T04:30:09;0.60;99.90
73360;DHT22;63092;43.582;19.528;2024-01-30T04:32:36;0.60;99.90
73360;DHT22;63092;43.582;19.528;2024-01-30T04:35:03;0.60;99.90
73360;DHT22;63092;43.582;19.528;2024-01-30T04:37:29;0.60;99.90
73360;DHT22;63092;43.582;19.528;2024-01-30T04:39:54;0.70;99.90
73360;DHT22;63092;43.582;19.528;2024-01-30T04:42:20;0.70;99.90
73360;DHT22;63092;43.582;19.528;2024-01-30T04:44:46;0.70;99.90
73360;DHT22;63092;43.582;19.528;2024-01-30T04:47:12;0.80;99.90
73360;DHT22;63092;43.582;19.528;2024-01-30T04:49:40;0.80;99.90
73360;DHT22;63092;43.582;19.528;2024-01-30T04:52:07;0.90;99.90
73360;DHT22;63092;43.582;19.528;2024-01-30T04:54:33;0.90;99.90
73360;DHT22;63092;43.582;19.528;2024-01-30T04:57:00;1.00;99.90
73360;DHT22;63092;43.582;19.528;2024-01-30T04:59:26;0.90;99.90
73360;DHT22;63092;43.582;19.528;2024-01-30T05:01:51;0.70;99.90
73360;DHT22;63092;43.582;19.528;2024-01-30T05:04:17;0.60;99.90
73360;DHT22;63092;43.582;19.528;2024-01-30T05:06:43;0.70;99.90
73360;DHT22;63092;43.582;19.528;2024-01-30T05:09:09;0.80;99.90
73360;DHT22;63092;43.582;19.528;2024-01-30T05:11:40;0.80;99.90
73360;DHT22;63092;43.582;19.528;2024-01-30T05:14:07;0.80;99.90
73360;DHT22;63092;43.582;19.528;2024-01-30T05:16:34;0.70;99.90
73360;DHT22;63092;43.582;19.528;2024-01-30T05:19:00;0.70;99.90
73360;DHT22;63092;43.582;19.528;2024-01-30T05:21:26;0.80;99.90
73360;DHT22;63092;43.582;19.528;2024-01-30T05:23:52;0.90;99.90
73360;DHT22;63092;43.582;19.528;2024-01-30T05:26:18;0.90;99.90
73360;DHT22;63092;43.582;19.528;2024-01-30T05:28:44;0.90;99.90
73360;DHT22;63092;43.582;19.528;2024-01-30T05:31:13;0.90;99.90
73360;DHT22;63092;43.582;19.528;2024-01-30T05:33:39;0.90;99.90
73360;DHT22;63092;43.582;19.528;2024-01-30T05:36:05;0.90;99.90
73360;DHT22;63092;43.582;19.528;2024-01-30T05:38:31;0.90;99.90
73360;DHT22;63092;43.582;19.528;2024-01-30T05:40:57;0.90;99.90
73360;DHT22;63092;43.582;19.528;2024-01-30T05:43:26;0.80;99.90
73360;DHT22;63092;43.582;19.528;2024-01-30T05:45:51;0.80;99.90
73360;DHT22;63092;43.582;19.528;2024-01-30T05:48:18;0.70;99.90
73360;DHT22;63092;43.582;19.528;2024-01-30T05:50:44;0.70;99.90
73360;DHT22;63092;43.582;19.528;2024-01-30T05:53:10;0.70;99.90
73360;DHT22;63092;43.582;19.528;2024-01-30T05:55:36;0.60;99.90
73360;DHT22;63092;43.582;19.528;2024-01-30T05:58:02;0.60;99.90
73360;DHT22;63092;43.582;19.528;2024-01-30T06:00:28;0.70;99.90
73360;DHT22;63092;43.582;19.528;2024-01-30T06:02:53;0.70;99.90
73360;DHT22;63092;43.582;19.528;2024-01-30T06:05:19;0.60;99.90
73360;DHT22;63092;43.582;19.528;2024-01-30T06:07:45;0.60;99.90
73360;DHT22;63092;43.582;19.528;2024-01-30T06:10:11;0.50;99.90
73360;DHT22;63092;43.582;19.528;2024-01-30T06:12:37;0.30;99.90
73360;DHT22;63092;43.582;19.528;2024-01-30T06:15:03;0.30;99.90
73360;DHT22;63092;43.582;19.528;2024-01-30T06:17:29;0.40;99.90
73360;DHT22;63092;43.582;19.528;2024-01-30T06:19:55;0.40;99.90
73360;DHT22;63092;43.582;19.528;2024-01-30T06:22:21;0.30;99.90
73360;DHT22;63092;43.582;19.528;2024-01-30T06:24:46;0.40;99.90
73360;DHT22;63092;43.582;19.528;2024-01-30T06:27:14;0.40;99.90
73360;DHT22;63092;43.582;19.528;2024-01-30T06:29:42;0.40;99.90
73360;DHT22;63092;43.582;19.528;2024-01-30T06:32:08;0.40;99.90
73360;DHT22;63092;43.582;19.528;2024-01-30T06:34:35;0.60;99.90
73360;DHT22;63092;43.582;19.528;2024-01-30T06:37:00;0.60;99.90
73360;DHT22;63092;43.582;19.528;2024-01-30T06:39:27;0.60;99.90
73360;DHT22;63092;43.582;19.528;2024-01-30T06:41:52;0.60;99.90
73360;DHT22;63092;43.582;19.528;2024-01-30T06:44:18;0.60;99.90
73360;DHT22;63092;43.582;19.528;2024-01-30T06:46:44;0.60;99.90
73360;DHT22;63092;43.582;19.528;2024-01-30T06:49:10;0.70;99.90
73360;DHT22;63092;43.582;19.528;2024-01-30T06:51:35;0.70;99.90
73360;DHT22;63092;43.582;19.528;2024-01-30T06:54:01;0.80;99.90
73360;DHT22;63092;43.582;19.528;2024-01-30T06:56:27;0.90;99.90
73360;DHT22;63092;43.582;19.528;2024-01-30T06:58:53;0.90;99.90
73360;DHT22;63092;43.582;19.528;2024-01-30T07:01:19;1.00;99.90
73360;DHT22;63092;43.582;19.528;2024-01-30T07:03:44;0.70;99.90
73360;DHT22;63092;43.582;19.528;2024-01-30T07:06:10;0.70;99.90
73360;DHT22;63092;43.582;19.528;2024-01-30T07:08:36;0.60;99.90
73360;DHT22;63092;43.582;19.528;2024-01-30T07:11:05;0.50;99.90
73360;DHT22;63092;43.582;19.528;2024-01-30T07:13:32;0.60;99.90
73360;DHT22;63092;43.582;19.528;2024-01-30T07:15:58;0.70;99.90
73360;DHT22;63092;43.582;19.528;2024-01-30T07:18:24;0.80;99.90
73360;DHT22;63092;43.582;19.528;2024-01-30T07:20:49;0.70;99.90
73360;DHT22;63092;43.582;19.528;2024-01-30T07:23:16;0.70;99.90
73360;DHT22;63092;43.582;19.528;2024-01-30T07:25:47;0.70;99.90
73360;DHT22;63092;43.582;19.528;2024-01-30T07:28:16;0.80;99.90
73360;DHT22;63092;43.582;19.528;2024-01-30T07:30:45;0.70;99.90
73360;DHT22;63092;43.582;19.528;2024-01-30T07:33:11;0.60;99.90
73360;DHT22;63092;43.582;19.528;2024-01-30T07:35:36;0.50;99.90
73360;DHT22;63092;43.582;19.528;2024-01-30T07:38:02;0.60;99.90
73360;DHT22;63092;43.582;19.528;2024-01-30T07:40:28;0.60;99.90
73360;DHT22;63092;43.582;19.528;2024-01-30T07:42:54;0.50;99.90
73360;DHT22;63092;43.582;19.528;2024-01-30T07:45:20;0.60;99.90
73360;DHT22;63092;43.582;19.528;2024-01-30T07:47:49;0.70;99.90
73360;DHT22;63092;43.582;19.528;2024-01-30T07:50:15;0.80;99.90
73360;DHT22;63092;43.582;19.528;2024-01-30T07:52:41;0.90;99.90
73360;DHT22;63092;43.582;19.528;2024-01-30T07:55:07;0.90;99.90
73360;DHT22;63092;43.582;19.528;2024-01-30T07:57:33;1.00;99.90
73360;DHT22;63092;43.582;19.528;2024-01-30T08:00:02;0.90;99.90
73360;DHT22;63092;43.582;19.528;2024-01-30T08:02:28;0.90;99.90
73360;DHT22;63092;43.582;19.528;2024-01-30T08:04:54;1.00;99.90
73360;DHT22;63092;43.582;19.528;2024-01-30T08:07:20;1.10;99.90
73360;DHT22;63092;43.582;19.528;2024-01-30T08:09:47;1.20;99.90
73360;DHT22;63092;43.582;19.528;2024-01-30T08:12:13;1.30;99.90
73360;DHT22;63092;43.582;19.528;2024-01-30T08:14:39;1.30;99.90
73360;DHT22;63092;43.582;19.528;2024-01-30T08:17:06;1.40;99.90
73360;DHT22;63092;43.582;19.528;2024-01-30T08:19:33;1.50;99.90
73360;DHT22;63092;43.582;19.528;2024-01-30T08:21:59;1.60;99.90
73360;DHT22;63092;43.582;19.528;2024-01-30T08:24:24;1.70;99.90
73360;DHT22;63092;43.582;19.528;2024-01-30T08:26:50;1.80;99.90
73360;DHT22;63092;43.582;19.528;2024-01-30T08:29:16;1.80;99.90
73360;DHT22;63092;43.582;19.528;2024-01-30T08:31:42;1.90;99.90
73360;DHT22;63092;43.582;19.528;2024-01-30T08:34:07;1.90;99.90
73360;DHT22;63092;43.582;19.528;2024-01-30T08:36:33;1.90;99.90
73360;DHT22;63092;43.582;19.528;2024-01-30T08:38:59;2.00;99.90
73360;DHT22;63092;43.582;19.528;2024-01-30T08:41:24;2.00;99.90
73360;DHT22;63092;43.582;19.528;2024-01-30T08:43:52;2.10;99.90
73360;DHT22;63092;43.582;19.528;2024-01-30T08:46:18;2.10;99.90
73360;DHT22;63092;43.582;19.528;2024-01-30T08:48:44;2.30;99.90
73360;DHT22;63092;43.582;19.528;2024-01-30T08:51:10;2.20;99.90
73360;DHT22;63092;43.582;19.528;2024-01-30T08:53:36;2.20;99.90
73360;DHT22;63092;43.582;19.528;2024-01-30T08:56:03;2.30;99.90
73360;DHT22;63092;43.582;19.528;2024-01-30T08:58:29;2.40;99.90
73360;DHT22;63092;43.582;19.528;2024-01-30T09:00:54;2.50;99.90
73360;DHT22;63092;43.582;19.528;2024-01-30T09:03:20;2.50;99.90
73360;DHT22;63092;43.582;19.528;2024-01-30T09:05:46;2.70;99.90
73360;DHT22;63092;43.582;19.528;2024-01-30T09:08:11;2.80;99.90
73360;DHT22;63092;43.582;19.528;2024-01-30T09:10:37;2.90;99.90
73360;DHT22;63092;43.582;19.528;2024-01-30T09:13:03;3.00;99.90
73360;DHT22;63092;43.582;19.528;2024-01-30T09:15:29;3.10;99.90
73360;DHT22;63092;43.582;19.528;2024-01-30T09:17:54;3.10;99.90
73360;DHT22;63092;43.582;19.528;2024-01-30T09:20:20;3.20;99.90
73360;DHT22;63092;43.582;19.528;2024-01-30T09:22:47;3.30;99.90
73360;DHT22;63092;43.582;19.528;2024-01-30T09:25:14;3.50;99.90
73360;DHT22;63092;43.582;19.528;2024-01-30T09:27:39;3.40;99.90
73360;DHT22;63092;43.582;19.528;2024-01-30T09:30:08;3.50;99.90
73360;DHT22;63092;43.582;19.528;2024-01-30T09:32:33;3.50;99.90
73360;DHT22;63092;43.582;19.528;2024-01-30T09:34:59;3.50;99.90
73360;DHT22;63092;43.582;19.528;2024-01-30T09:37:25;3.30;99.90
73360;DHT22;63092;43.582;19.528;2024-01-30T09:39:50;3.30;99.90
73360;DHT22;63092;43.582;19.528;2024-01-30T09:44:51;3.60;99.90
73360;DHT22;63092;43.582;19.528;2024-01-30T09:47:20;3.70;99.90
73360;DHT22;63092;43.582;19.528;2024-01-30T09:49:46;3.80;99.70
73360;DHT22;63092;43.582;19.528;2024-01-30T09:52:12;3.90;98.10
73360;DHT22;63092;43.582;19.528;2024-01-30T09:54:38;4.00;98.10
73360;DHT22;63092;43.582;19.528;2024-01-30T09:57:04;3.90;97.40
73360;DHT22;63092;43.582;19.528;2024-01-30T09:59:31;3.90;97.70
73360;DHT22;63092;43.582;19.528;2024-01-30T10:01:57;3.90;97.20
73360;DHT22;63092;43.582;19.528;2024-01-30T10:04:23;3.90;97.40
73360;DHT22;63092;43.582;19.528;2024-01-30T10:06:50;4.00;97.20
73360;DHT22;63092;43.582;19.528;2024-01-30T10:09:16;3.90;97.10
73360;DHT22;63092;43.582;19.528;2024-01-30T10:11:42;4.00;97.90
73360;DHT22;63092;43.582;19.528;2024-01-30T10:14:08;4.20;97.10
73360;DHT22;63092;43.582;19.528;2024-01-30T10:16:34;4.30;95.80
73360;DHT22;63092;43.582;19.528;2024-01-30T10:19:00;4.30;96.30
73360;DHT22;63092;43.582;19.528;2024-01-30T10:21:26;4.30;97.00
73360;DHT22;63092;43.582;19.528;2024-01-30T10:23:52;4.40;97.20
73360;DHT22;63092;43.582;19.528;2024-01-30T10:26:18;4.40;96.90
73360;DHT22;63092;43.582;19.528;2024-01-30T10:28:44;4.50;97.10
73360;DHT22;63092;43.582;19.528;2024-01-30T10:31:09;4.50;96.20
73360;DHT22;63092;43.582;19.528;2024-01-30T10:33:35;4.60;96.10
73360;DHT22;63092;43.582;19.528;2024-01-30T10:36:03;4.70;95.90
73360;DHT22;63092;43.582;19.528;2024-01-30T10:38:30;4.80;95.40
73360;DHT22;63092;43.582;19.528;2024-01-30T10:41:00;4.80;95.10
73360;DHT22;63092;43.582;19.528;2024-01-30T10:43:35;5.00;95.30
73360;DHT22;63092;43.582;19.528;2024-01-30T10:46:17;5.10;94.00
73360;DHT22;63092;43.582;19.528;2024-01-30T10:48:44;5.20;92.50
73360;DHT22;63092;43.582;19.528;2024-01-30T10:51:13;5.30;92.10
73360;DHT22;63092;43.582;19.528;2024-01-30T10:53:39;5.40;91.60
73360;DHT22;63092;43.582;19.528;2024-01-30T10:56:06;5.40;91.00
73360;DHT22;63092;43.582;19.528;2024-01-30T10:58:33;5.50;90.10
73360;DHT22;63092;43.582;19.528;2024-01-30T11:00:59;5.60;89.50
73360;DHT22;63092;43.582;19.528;2024-01-30T11:03:26;5.60;88.70
73360;DHT22;63092;43.582;19.528;2024-01-30T11:05:52;5.60;87.70
73360;DHT22;63092;43.582;19.528;2024-01-30T11:08:24;5.80;86.70
73360;DHT22;63092;43.582;19.528;2024-01-30T11:10:56;5.80;85.60
73360;DHT22;63092;43.582;19.528;2024-01-30T11:13:27;5.90;84.80
73360;DHT22;63092;43.582;19.528;2024-01-30T11:15:53;6.00;84.30
73360;DHT22;63092;43.582;19.528;2024-01-30T11:18:25;6.00;83.70
73360;DHT22;63092;43.582;19.528;2024-01-30T11:20:51;6.10;82.40
73360;DHT22;63092;43.582;19.528;2024-01-30T11:23:17;6.10;81.90
73360;DHT22;63092;43.582;19.528;2024-01-30T11:25:46;6.10;81.70
73360;DHT22;63092;43.582;19.528;2024-01-30T11:28:14;6.20;80.30
73360;DHT22;63092;43.582;19.528;2024-01-30T11:30:43;6.20;80.50
73360;DHT22;63092;43.582;19.528;2024-01-30T11:33:10;6.10;80.20
73360;DHT22;63092;43.582;19.528;2024-01-30T11:38:07;6.20;79.90
73360;DHT22;63092;43.582;19.528;2024-01-30T11:40:34;6.30;79.90
73360;DHT22;63092;43.582;19.528;2024-01-30T11:43:02;6.30;78.40
73360;DHT22;63092;43.582;19.528;2024-01-30T11:45:28;6.30;78.30
73360;DHT22;63092;43.582;19.528;2024-01-30T11:47:55;6.40;78.10
73360;DHT22;63092;43.582;19.528;2024-01-30T11:50:21;6.60;78.00
73360;DHT22;63092;43.582;19.528;2024-01-30T11:52:47;6.60;77.60
73360;DHT22;63092;43.582;19.528;2024-01-30T11:55:16;6.60;77.60
73360;DHT22;63092;43.582;19.528;2024-01-30T11:57:43;6.60;77.00
73360;DHT22;63092;43.582;19.528;2024-01-30T12:00:18;6.70;77.70
73360;DHT22;63092;43.582;19.528;2024-01-30T12:02:48;6.70;76.10
73360;DHT22;63092;43.582;19.528;2024-01-30T12:05:14;6.80;76.20
73360;DHT22;63092;43.582;19.528;2024-01-30T12:07:40;6.90;75.90
73360;DHT22;63092;43.582;19.528;2024-01-30T12:10:09;6.90;75.60
73360;DHT22;63092;43.582;19.528;2024-01-30T12:12:35;6.90;75.10
73360;DHT22;63092;43.582;19.528;2024-01-30T12:15:01;7.00;74.80
73360;DHT22;63092;43.582;19.528;2024-01-30T12:17:31;7.00;74.80
73360;DHT22;63092;43.582;19.528;2024-01-30T12:20:13;7.00;74.20
73360;DHT22;63092;43.582;19.528;2024-01-30T12:22:47;6.90;74.20
73360;DHT22;63092;43.582;19.528;2024-01-30T12:25:14;7.00;74.50
73360;DHT22;63092;43.582;19.528;2024-01-30T12:27:48;7.10;75.50
73360;DHT22;63092;43.582;19.528;2024-01-30T12:30:19;7.10;74.10
73360;DHT22;63092;43.582;19.528;2024-01-30T12:32:46;7.20;74.30
73360;DHT22;63092;43.582;19.528;2024-01-30T12:35:14;7.30;74.40
73360;DHT22;63092;43.582;19.528;2024-01-30T12:37:41;7.30;73.60
73360;DHT22;63092;43.582;19.528;2024-01-30T12:40:08;7.30;74.60
73360;DHT22;63092;43.582;19.528;2024-01-30T12:42:35;7.30;74.00
73360;DHT22;63092;43.582;19.528;2024-01-30T12:45:03;7.40;74.40
73360;DHT22;63092;43.582;19.528;2024-01-30T12:47:30;7.40;73.60
73360;DHT22;63092;43.582;19.528;2024-01-30T12:49:56;7.50;73.10
73360;DHT22;63092;43.582;19.528;2024-01-30T12:52:22;7.50;73.20
73360;DHT22;63092;43.582;19.528;2024-01-30T12:54:49;7.50;73.00
73360;DHT22;63092;43.582;19.528;2024-01-30T12:57:15;7.60;72.50
73360;DHT22;63092;43.582;19.528;2024-01-30T12:59:42;7.60;72.80
73360;DHT22;63092;43.582;19.528;2024-01-30T13:02:08;7.70;72.40
73360;DHT22;63092;43.582;19.528;2024-01-30T13:04:34;7.70;72.80
73360;DHT22;63092;43.582;19.528;2024-01-30T13:07:00;7.60;72.80
73360;DHT22;63092;43.582;19.528;2024-01-30T13:09:26;7.70;72.80
73360;DHT22;63092;43.582;19.528;2024-01-30T13:11:52;7.60;73.00
73360;DHT22;63092;43.582;19.528;2024-01-30T13:14:19;7.60;73.50
73360;DHT22;63092;43.582;19.528;2024-01-30T13:16:45;7.70;73.20
73360;DHT22;63092;43.582;19.528;2024-01-30T13:19:11;7.70;73.40
73360;DHT22;63092;43.582;19.528;2024-01-30T13:21:37;7.80;73.80
73360;DHT22;63092;43.582;19.528;2024-01-30T13:24:03;7.80;72.60
73360;DHT22;63092;43.582;19.528;2024-01-30T13:26:29;7.80;72.90
73360;DHT22;63092;43.582;19.528;2024-01-30T13:28:56;7.80;72.90
73360;DHT22;63092;43.582;19.528;2024-01-30T13:31:22;7.80;73.80
73360;DHT22;63092;43.582;19.528;2024-01-30T13:33:48;7.80;74.30
73360;DHT22;63092;43.582;19.528;2024-01-30T13:36:14;7.80;74.40
73360;DHT22;63092;43.582;19.528;2024-01-30T13:38:40;7.80;74.20
73360;DHT22;63092;43.582;19.528;2024-01-30T13:41:06;7.70;73.80
73360;DHT22;63092;43.582;19.528;2024-01-30T13:43:31;7.70;73.50
73360;DHT22;63092;43.582;19.528;2024-01-30T13:45:58;7.60;74.60
73360;DHT22;63092;43.582;19.528;2024-01-30T13:48:24;7.60;74.60
73360;DHT22;63092;43.582;19.528;2024-01-30T13:50:50;7.50;75.90
73360;DHT22;63092;43.582;19.528;2024-01-30T13:53:16;7.60;75.70
73360;DHT22;63092;43.582;19.528;2024-01-30T13:55:41;7.50;74.20
73360;DHT22;63092;43.582;19.528;2024-01-30T13:58:07;7.40;74.90
73360;DHT22;63092;43.582;19.528;2024-01-30T14:00:33;7.40;76.70
73360;DHT22;63092;43.582;19.528;2024-01-30T14:03:00;7.20;75.60
73360;DHT22;63092;43.582;19.528;2024-01-30T14:05:26;7.00;75.90
73360;DHT22;63092;43.582;19.528;2024-01-30T14:07:53;6.90;76.80
73360;DHT22;63092;43.582;19.528;2024-01-30T14:10:19;6.60;76.70
73360;DHT22;63092;43.582;19.528;2024-01-30T14:12:45;6.50;77.50
73360;DHT22;63092;43.582;19.528;2024-01-30T14:15:11;6.40;77.40
73360;DHT22;63092;43.582;19.528;2024-01-30T14:17:38;6.30;77.90
73360;DHT22;63092;43.582;19.528;2024-01-30T14:20:04;6.20;77.50
73360;DHT22;63092;43.582;19.528;2024-01-30T14:22:31;6.20;77.50
73360;DHT22;63092;43.582;19.528;2024-01-30T14:24:56;6.30;78.40
73360;DHT22;63092;43.582;19.528;2024-01-30T14:27:22;6.40;82.40
73360;DHT22;63092;43.582;19.528;2024-01-30T14:29:48;6.50;83.20
73360;DHT22;63092;43.582;19.528;2024-01-30T14:32:14;6.50;83.20
73360;DHT22;63092;43.582;19.528;2024-01-30T14:34:40;6.50;83.90
73360;DHT22;63092;43.582;19.528;2024-01-30T14:37:05;6.50;83.80
73360;DHT22;63092;43.582;19.528;2024-01-30T14:39:31;6.50;83.20
73360;DHT22;63092;43.582;19.528;2024-01-30T14:41:58;6.50;78.70
73360;DHT22;63092;43.582;19.528;2024-01-30T14:44:24;6.50;77.80
73360;DHT22;63092;43.582;19.528;2024-01-30T14:46:49;6.50;79.00
73360;DHT22;63092;43.582;19.528;2024-01-30T14:49:15;6.40;83.10
73360;DHT22;63092;43.582;19.528;2024-01-30T14:51:42;6.40;83.60
73360;DHT22;63092;43.582;19.528;2024-01-30T14:54:08;6.40;82.00
73360;DHT22;63092;43.582;19.528;2024-01-30T14:56:34;6.30;82.50
73360;DHT22;63092;43.582;19.528;2024-01-30T14:59:00;6.30;83.40
73360;DHT22;63092;43.582;19.528;2024-01-30T15:01:26;6.30;83.10
73360;DHT22;63092;43.582;19.528;2024-01-30T15:03:52;6.30;83.40
73360;DHT22;63092;43.582;19.528;2024-01-30T15:06:18;6.30;84.00
73360;DHT22;63092;43.582;19.528;2024-01-30T15:08:44;6.30;84.20
73360;DHT22;63092;43.582;19.528;2024-01-30T15:11:10;6.30;85.20
73360;DHT22;63092;43.582;19.528;2024-01-30T15:13:36;6.20;85.50
73360;DHT22;63092;43.582;19.528;2024-01-30T15:16:03;6.20;86.40
73360;DHT22;63092;43.582;19.528;2024-01-30T15:18:31;6.10;86.60
73360;DHT22;63092;43.582;19.528;2024-01-30T15:20:57;6.10;86.50
73360;DHT22;63092;43.582;19.528;2024-01-30T15:23:22;6.00;86.60
73360;DHT22;63092;43.582;19.528;2024-01-30T15:25:48;6.00;86.80
73360;DHT22;63092;43.582;19.528;2024-01-30T15:28:14;6.00;87.30
73360;DHT22;63092;43.582;19.528;2024-01-30T15:30:41;6.00;87.90